Taisho Maru — JI3307 — position and weather

sailwx.info

Track history (hours):
 
Tides and Currents Weather Stations Pressure Air Temp Water Temp Dewpoint Dewpoint Depression Visibility Wind Speed Wind Dir Waves Ship Positions

Taisho Maru

Last reported at 2015-Aug-03 04:31 UTC. Time now 2015-Aug-03 04:40 UTC.
Position N 35°34' E 139°51'.

Length 93 m; draft 7.3 m.

Type: Cargo ship. MMSI: 431300084.

Date/timePositionNaut miles runAvg speedWind from/ knotsBaromVisibWave heightAir tempDewpointWater temp
2015-Aug-03 04:31N 35°34' E 139°51'0 0.0
2015-Aug-03 03:31N 35°34' E 139°51'0 0.0
2015-Aug-03 02:28N 35°34' E 139°51'0 0.0
2015-Aug-03 01:28N 35°34' E 139°51'0 0.0
2015-Aug-03 00:31N 35°34' E 139°51'0 0.0
2015-Aug-02 23:31N 35°34' E 139°51'0 0.0
2015-Aug-02 22:31N 35°34' E 139°51'0 0.0
2015-Aug-02 21:31N 35°34' E 139°51'2 2.6
2015-Aug-02 20:33N 35°31' E 139°52'1212.3
2015-Aug-02 19:33N 35°21' E 139°45'1212.1
2015-Aug-02 18:33N 35°09' E 139°46'1211.8
2015-Aug-02 17:33N 34°57' E 139°43'1210.5
2015-Aug-02 16:22N 34°51' E 139°56'1012.4
2015-Aug-02 15:33N 34°55' E 140°08'2412.0
2015-Aug-02 13:32N 35°09' E 140°32'1412.2
2015-Aug-02 12:22N 35°21' E 140°42'1112.0
2015-Aug-02 11:29N 35°30' E 140°49'1111.7
2015-Aug-02 10:32N 35°39' E 140°57'1311.9
2015-Aug-02 09:28N 35°51' E 141°01'  
2015-Jul-27 21:06N 37°11' E 141°19'913.6
2015-Jul-27 20:26N 37°02' E 141°17'1313.8
2015-Jul-27 19:31N 36°49' E 141°14'1413.7
2015-Jul-27 18:28N 36°35' E 141°11'4113.6
2015-Jul-27 15:26N 35°55' E 141°02'2713.6
2015-Jul-27 13:26N 35°29' E 140°50'2014.9
2015-Jul-27 12:04N 35°13' E 140°36'2214.4
2015-Jul-27 10:32N 34°58' E 140°16'1514.2
2015-Jul-27 09:28N 34°51' E 139°59'1213.3
2015-Jul-27 08:33N 34°52' E 139°44'1312.9
2015-Jul-27 07:33N 35°05' E 139°43'1212.3
2015-Jul-27 06:33N 35°17' E 139°45'1111.2
2015-Jul-27 05:33N 35°28' E 139°48'9 8.0
2015-Jul-27 04:28N 35°28' E 139°59'0 0.0
2015-Jul-27 03:16N 35°28' E 139°59'0 0.0
2015-Jul-27 02:10N 35°28' E 139°59'0 0.0
2015-Jul-27 01:22N 35°28' E 139°59'0 0.0
2015-Jul-27 00:33N 35°28' E 139°59'2 2.2
2015-Jul-26 23:33N 35°29' E 139°57'1212.1
2015-Jul-26 22:34N 35°26' E 139°43'3 3.3
2015-Jul-26 21:31N 35°29' E 139°40'0 0.0
2015-Jul-26 20:31N 35°29' E 139°40'0 0.0
2015-Jul-26 19:31N 35°29' E 139°40'0 0.0
2015-Jul-26 18:31N 35°29' E 139°40'0 0.0
2015-Jul-26 17:31N 35°29' E 139°40'0 0.0
2015-Jul-26 16:31N 35°29' E 139°40'0 0.0
2015-Jul-26 15:31N 35°29' E 139°40'0 0.0
2015-Jul-26 14:31N 35°29' E 139°40'0 0.0
2015-Jul-26 13:31N 35°29' E 139°40'0 0.0
2015-Jul-26 12:31N 35°29' E 139°40'0 0.0
2015-Jul-26 11:31N 35°29' E 139°40'0 0.0
2015-Jul-26 10:31N 35°29' E 139°40'0 0.0
2015-Jul-26 09:31N 35°29' E 139°40'0 0.0
2015-Jul-26 08:31N 35°29' E 139°40'0 0.0
2015-Jul-26 07:31N 35°29' E 139°40'0 0.0
2015-Jul-26 06:31N 35°29' E 139°40'0 0.0
2015-Jul-26 05:31N 35°29' E 139°40'0 0.0
2015-Jul-26 04:31N 35°29' E 139°40'0 0.0
2015-Jul-26 03:31N 35°29' E 139°40'0 0.0
2015-Jul-26 02:31N 35°29' E 139°40'0 0.0
2015-Jul-26 01:31N 35°29' E 139°40'2 1.8
2015-Jul-26 00:33N 35°27' E 139°41'4 4.0
2015-Jul-25 23:31N 35°24' E 139°44'0 0.0
2015-Jul-25 22:34N 35°24' E 139°44'0 0.1
2015-Jul-25 21:33N 35°24' E 139°44'6 6.0
2015-Jul-25 20:33N 35°18' E 139°45'1110.9
2015-Jul-25 19:33N 35°07' E 139°45'1613.1
2015-Jul-25 18:22N 34°56' E 139°31'5613.3
2015-Jul-25 14:08N 34°27' E 138°33'  
Track history (hours):
 
Tides and Currents Weather Stations Pressure Air Temp Water Temp Dewpoint Dewpoint Depression Visibility Wind Speed Wind Dir Waves Ship Positions

Taisho Maru

Last reported at 2015-Aug-03 04:31 UTC. Time now 2015-Aug-03 04:40 UTC.
Position N 35°34' E 139°51'.

Length 93 m; draft 7.3 m.

Type: Cargo ship. MMSI: 431300084.

Date/timePositionNaut miles runAvg speedWind from/ knotsBaromVisibWave heightAir tempDewpointWater temp
2015-Aug-03 04:31N 35°34' E 139°51'0 0.0
2015-Aug-03 03:31N 35°34' E 139°51'0 0.0
2015-Aug-03 02:28N 35°34' E 139°51'0 0.0
2015-Aug-03 01:28N 35°34' E 139°51'0 0.0
2015-Aug-03 00:31N 35°34' E 139°51'0 0.0
2015-Aug-02 23:31N 35°34' E 139°51'0 0.0
2015-Aug-02 22:31N 35°34' E 139°51'0 0.0
2015-Aug-02 21:31N 35°34' E 139°51'2 2.6
2015-Aug-02 20:33N 35°31' E 139°52'1212.3
2015-Aug-02 19:33N 35°21' E 139°45'1212.1
2015-Aug-02 18:33N 35°09' E 139°46'1211.8
2015-Aug-02 17:33N 34°57' E 139°43'1210.5
2015-Aug-02 16:22N 34°51' E 139°56'1012.4
2015-Aug-02 15:33N 34°55' E 140°08'2412.0
2015-Aug-02 13:32N 35°09' E 140°32'1412.2
2015-Aug-02 12:22N 35°21' E 140°42'1112.0
2015-Aug-02 11:29N 35°30' E 140°49'1111.7
2015-Aug-02 10:32N 35°39' E 140°57'1311.9
2015-Aug-02 09:28N 35°51' E 141°01'  
2015-Jul-27 21:06N 37°11' E 141°19'913.6
2015-Jul-27 20:26N 37°02' E 141°17'1313.8
2015-Jul-27 19:31N 36°49' E 141°14'1413.7
2015-Jul-27 18:28N 36°35' E 141°11'4113.6
2015-Jul-27 15:26N 35°55' E 141°02'2713.6
2015-Jul-27 13:26N 35°29' E 140°50'2014.9
2015-Jul-27 12:04N 35°13' E 140°36'2214.4
2015-Jul-27 10:32N 34°58' E 140°16'1514.2
2015-Jul-27 09:28N 34°51' E 139°59'1213.3
2015-Jul-27 08:33N 34°52' E 139°44'1312.9
2015-Jul-27 07:33N 35°05' E 139°43'1212.3
2015-Jul-27 06:33N 35°17' E 139°45'1111.2
2015-Jul-27 05:33N 35°28' E 139°48'9 8.0
2015-Jul-27 04:28N 35°28' E 139°59'0 0.0
2015-Jul-27 03:16N 35°28' E 139°59'0 0.0
2015-Jul-27 02:10N 35°28' E 139°59'0 0.0
2015-Jul-27 01:22N 35°28' E 139°59'0 0.0
2015-Jul-27 00:33N 35°28' E 139°59'2 2.2
2015-Jul-26 23:33N 35°29' E 139°57'1212.1
2015-Jul-26 22:34N 35°26' E 139°43'3 3.3
2015-Jul-26 21:31N 35°29' E 139°40'0 0.0
2015-Jul-26 20:31N 35°29' E 139°40'0 0.0
2015-Jul-26 19:31N 35°29' E 139°40'0 0.0
2015-Jul-26 18:31N 35°29' E 139°40'0 0.0
2015-Jul-26 17:31N 35°29' E 139°40'0 0.0
2015-Jul-26 16:31N 35°29' E 139°40'0 0.0
2015-Jul-26 15:31N 35°29' E 139°40'0 0.0
2015-Jul-26 14:31N 35°29' E 139°40'0 0.0
2015-Jul-26 13:31N 35°29' E 139°40'0 0.0
2015-Jul-26 12:31N 35°29' E 139°40'0 0.0
2015-Jul-26 11:31N 35°29' E 139°40'0 0.0
2015-Jul-26 10:31N 35°29' E 139°40'0 0.0
2015-Jul-26 09:31N 35°29' E 139°40'0 0.0
2015-Jul-26 08:31N 35°29' E 139°40'0 0.0
2015-Jul-26 07:31N 35°29' E 139°40'0 0.0
2015-Jul-26 06:31N 35°29' E 139°40'0 0.0
2015-Jul-26 05:31N 35°29' E 139°40'0 0.0
2015-Jul-26 04:31N 35°29' E 139°40'0 0.0
2015-Jul-26 03:31N 35°29' E 139°40'0 0.0
2015-Jul-26 02:31N 35°29' E 139°40'0 0.0
2015-Jul-26 01:31N 35°29' E 139°40'2 1.8
2015-Jul-26 00:33N 35°27' E 139°41'4 4.0
2015-Jul-25 23:31N 35°24' E 139°44'0 0.0
2015-Jul-25 22:34N 35°24' E 139°44'0 0.1
2015-Jul-25 21:33N 35°24' E 139°44'6 6.0
2015-Jul-25 20:33N 35°18' E 139°45'1110.9
2015-Jul-25 19:33N 35°07' E 139°45'1613.1
2015-Jul-25 18:22N 34°56' E 139°31'5613.3
2015-Jul-25 14:08N 34°27' E 138°33'  

Dump ship's entire track history